SBI4101 URSS-UBBB
Flight info
| Callsign | SBI4101 |
|---|---|
| Flight time | 1h 37m |
| Altitude | 35000 |
| Route | IRGID A944 RESLO B491 BAPNI A837 MOTEG N23 ERLEV |
| Aircraft | A310/H-SDFGHIM1RTUWXYZ/LB1 |
Departure
| Time | 2026-05-04 17:00 |
|---|---|
| Airport | Sochi International Airport (URSS) |
Arrival
| Time | 2026-05-04 18:37 |
|---|---|
| Airport | Heydar Aliyev International Airport (UBBB) |
| Time | Latitude | Longitude | Altitude | Speed | Heading |
|---|---|---|---|---|---|
| 2026-05-04 16:24 | 43.44900 | 39.94515 | 85 ft | 0 kts | 297° |
| 2026-05-04 16:47 | 43.44891 | 39.94539 | 74 ft | 3 kts | 297° |
| 2026-05-04 16:47 | 43.44873 | 39.94585 | 88 ft | 3 kts | 315° |
| 2026-05-04 16:48 | 43.44826 | 39.94628 | 86 ft | 3 kts | 333° |
| 2026-05-04 16:48 | 43.44809 | 39.94639 | 88 ft | 3 kts | 335° |
| 2026-05-04 16:49 | 43.44772 | 39.94636 | 88 ft | 3 kts | 44° |
| 2026-05-04 16:49 | 43.44764 | 39.94625 | 88 ft | 0 kts | 64° |
| 2026-05-04 16:53 | 43.44770 | 39.94641 | 89 ft | 5 kts | 62° |
| 2026-05-04 16:54 | 43.44794 | 39.94706 | 90 ft | 9 kts | 63° |
| 2026-05-04 16:55 | 43.44867 | 39.94914 | 90 ft | 3 kts | 65° |
| 2026-05-04 16:55 | 43.44920 | 39.95070 | 91 ft | 15 kts | 64° |
| 2026-05-04 16:56 | 43.45039 | 39.95408 | 96 ft | 20 kts | 65° |
| 2026-05-04 16:56 | 43.45227 | 39.95652 | 99 ft | 6 kts | 55° |
| 2026-05-04 16:57 | 43.45247 | 39.95693 | 100 ft | 6 kts | 58° |
| 2026-05-04 16:57 | 43.45282 | 39.95897 | 103 ft | 15 kts | 118° |
| 2026-05-04 16:58 | 43.45044 | 39.95789 | 96 ft | 10 kts | 241° |
| 2026-05-04 16:58 | 43.45041 | 39.95780 | 98 ft | 0 kts | 243° |
| 2026-05-04 17:00 | 43.43928 | 39.92511 | 314 ft | 167 kts | 246° |
| 2026-05-04 17:00 | 43.43541 | 39.87501 | 1693 ft | 188 kts | 289° |
| 2026-05-04 17:01 | 43.44695 | 39.83912 | 2488 ft | 220 kts | 299° |
| 2026-05-04 17:01 | 43.46375 | 39.80111 | 3529 ft | 244 kts | 304° |
| 2026-05-04 17:02 | 43.48420 | 39.76078 | 4556 ft | 272 kts | 306° |
| 2026-05-04 17:02 | 43.50725 | 39.71765 | 5944 ft | 287 kts | 306° |
| 2026-05-04 17:03 | 43.51940 | 39.69544 | 6700 ft | 292 kts | 306° |
| 2026-05-04 17:03 | 43.53178 | 39.67305 | 7524 ft | 295 kts | 306° |
| 2026-05-04 17:03 | 43.55671 | 39.62741 | 9258 ft | 300 kts | 305° |
| 2026-05-04 17:04 | 43.58218 | 39.58118 | 10895 ft | 305 kts | 306° |
| 2026-05-04 17:04 | 43.60818 | 39.53412 | 12447 ft | 311 kts | 305° |
| 2026-05-04 17:05 | 43.64294 | 39.50106 | 13948 ft | 316 kts | 355° |
| 2026-05-04 17:05 | 43.68577 | 39.51288 | 15045 ft | 325 kts | 21° |
| 2026-05-04 17:06 | 43.72679 | 39.54109 | 15988 ft | 336 kts | 51° |
| 2026-05-04 17:06 | 43.73833 | 39.56882 | 16467 ft | 334 kts | 79° |
| 2026-05-04 17:07 | 43.74253 | 39.63379 | 17370 ft | 350 kts | 89° |
| 2026-05-04 17:07 | 43.74424 | 39.65669 | 17665 ft | 358 kts | 86° |
| 2026-05-04 17:07 | 43.74955 | 39.70275 | 18261 ft | 372 kts | 83° |
| 2026-05-04 17:07 | 43.75464 | 39.73837 | 18664 ft | 382 kts | 82° |
| 2026-05-04 17:08 | 43.76021 | 39.77476 | 19037 ft | 390 kts | 82° |
| 2026-05-04 17:08 | 43.77165 | 39.84964 | 19858 ft | 406 kts | 82° |
| 2026-05-04 17:08 | 43.77745 | 39.88811 | 20304 ft | 413 kts | 82° |
| 2026-05-04 17:09 | 43.78319 | 39.92749 | 20714 ft | 419 kts | 83° |
| 2026-05-04 17:09 | 43.78843 | 39.96737 | 21142 ft | 425 kts | 83° |
| 2026-05-04 17:09 | 43.79359 | 40.00798 | 21580 ft | 431 kts | 83° |
| 2026-05-04 17:10 | 43.80391 | 40.09079 | 22468 ft | 441 kts | 83° |
| 2026-05-04 17:10 | 43.82060 | 40.21825 | 23898 ft | 452 kts | 82° |
| 2026-05-04 17:11 | 43.82609 | 40.26089 | 24536 ft | 450 kts | 83° |
| 2026-05-04 17:11 | 43.83139 | 40.30362 | 25117 ft | 449 kts | 83° |
| 2026-05-04 17:11 | 43.84212 | 40.38813 | 26257 ft | 447 kts | 83° |
| 2026-05-04 17:12 | 43.84741 | 40.43054 | 26864 ft | 446 kts | 83° |
| 2026-05-04 17:12 | 43.85793 | 40.51500 | 27987 ft | 444 kts | 83° |
| 2026-05-04 17:13 | 43.87338 | 40.64106 | 29588 ft | 441 kts | 83° |
| 2026-05-04 17:14 | 43.88564 | 40.76667 | 30970 ft | 435 kts | 91° |
| 2026-05-04 17:14 | 43.88710 | 40.80847 | 31339 ft | 434 kts | 91° |
| 2026-05-04 17:14 | 43.88992 | 40.89202 | 32149 ft | 433 kts | 91° |
| 2026-05-04 17:15 | 43.89175 | 40.93352 | 32551 ft | 432 kts | 91° |
| 2026-05-04 17:15 | 43.89537 | 41.01658 | 33300 ft | 431 kts | 91° |
| 2026-05-04 17:16 | 43.89861 | 41.09937 | 33865 ft | 434 kts | 91° |
| 2026-05-04 17:16 | 43.90403 | 41.22603 | 34466 ft | 442 kts | 91° |
| 2026-05-04 17:17 | 43.90591 | 41.26867 | 34585 ft | 447 kts | 90° |
| 2026-05-04 17:17 | 43.91132 | 41.39996 | 34904 ft | 461 kts | 90° |
| 2026-05-04 17:18 | 43.91317 | 41.44463 | 34940 ft | 467 kts | 91° |
| 2026-05-04 17:18 | 43.91668 | 41.53595 | 34934 ft | 480 kts | 90° |
| 2026-05-04 17:19 | 43.91983 | 41.62964 | 34935 ft | 488 kts | 91° |
| 2026-05-04 17:20 | 43.92626 | 41.81691 | 34934 ft | 487 kts | 90° |
| 2026-05-04 17:20 | 43.93096 | 41.95766 | 34933 ft | 488 kts | 91° |
| 2026-05-04 17:21 | 43.93706 | 42.14554 | 34919 ft | 487 kts | 91° |
| 2026-05-04 17:22 | 43.93990 | 42.23951 | 34919 ft | 487 kts | 91° |
| 2026-05-04 17:23 | 43.94560 | 42.42756 | 34926 ft | 487 kts | 91° |
| 2026-05-04 17:24 | 43.94953 | 42.56813 | 34924 ft | 487 kts | 91° |
| 2026-05-04 17:24 | 43.93900 | 42.70559 | 34947 ft | 475 kts | 114° |
| 2026-05-04 17:25 | 43.92739 | 42.74837 | 34929 ft | 475 kts | 114° |
| 2026-05-04 17:26 | 43.88931 | 42.92503 | 34938 ft | 479 kts | 109° |
| 2026-05-04 17:27 | 43.84384 | 43.14675 | 34935 ft | 478 kts | 110° |
| 2026-05-04 17:28 | 43.80718 | 43.32324 | 34930 ft | 478 kts | 109° |
| 2026-05-04 17:29 | 43.75182 | 43.58845 | 34925 ft | 478 kts | 109° |
| 2026-05-04 17:31 | 43.70516 | 43.80912 | 34907 ft | 478 kts | 110° |
| 2026-05-04 17:32 | 43.65798 | 44.02870 | 34926 ft | 478 kts | 110° |
| 2026-05-04 17:33 | 43.62263 | 44.19046 | 34929 ft | 478 kts | 110° |
| 2026-05-04 17:34 | 43.58454 | 44.36565 | 34980 ft | 472 kts | 110° |
| 2026-05-04 17:35 | 43.53714 | 44.58249 | 34954 ft | 473 kts | 110° |
| 2026-05-04 17:36 | 43.51808 | 44.66859 | 34951 ft | 473 kts | 110° |
| 2026-05-04 17:36 | 43.49897 | 44.75527 | 34953 ft | 473 kts | 110° |
| 2026-05-04 17:37 | 43.47985 | 44.84220 | 34950 ft | 474 kts | 110° |
| 2026-05-04 17:37 | 43.46082 | 44.92905 | 34941 ft | 474 kts | 110° |
| 2026-05-04 17:38 | 43.44156 | 45.01581 | 34944 ft | 474 kts | 111° |
| 2026-05-04 17:38 | 43.42216 | 45.10245 | 34936 ft | 474 kts | 111° |
| 2026-05-04 17:39 | 43.39295 | 45.23213 | 34929 ft | 475 kts | 111° |
| 2026-05-04 17:39 | 43.37333 | 45.31882 | 34947 ft | 476 kts | 111° |
| 2026-05-04 17:40 | 43.35368 | 45.40580 | 34930 ft | 476 kts | 111° |
| 2026-05-04 17:40 | 43.33412 | 45.49276 | 34940 ft | 477 kts | 111° |
| 2026-05-04 17:41 | 43.30796 | 45.57475 | 34944 ft | 462 kts | 132° |
| 2026-05-04 17:41 | 43.26573 | 45.64131 | 34949 ft | 463 kts | 134° |
| 2026-05-04 17:42 | 43.22620 | 45.71125 | 34945 ft | 465 kts | 130° |
| 2026-05-04 17:42 | 43.18852 | 45.78286 | 34939 ft | 466 kts | 130° |
| 2026-05-04 17:43 | 43.15008 | 45.85432 | 34943 ft | 465 kts | 131° |
| 2026-05-04 17:43 | 43.11154 | 45.92547 | 34938 ft | 465 kts | 131° |
| 2026-05-04 17:44 | 43.07290 | 45.99657 | 34932 ft | 465 kts | 131° |
| 2026-05-04 17:44 | 43.03425 | 46.06773 | 34934 ft | 466 kts | 131° |
| 2026-05-04 17:45 | 42.99550 | 46.13874 | 34925 ft | 465 kts | 132° |
| 2026-05-04 17:45 | 42.95679 | 46.20912 | 34913 ft | 466 kts | 132° |
| 2026-05-04 17:46 | 42.91785 | 46.27976 | 34910 ft | 466 kts | 132° |
| 2026-05-04 17:46 | 42.87889 | 46.35062 | 34894 ft | 467 kts | 132° |
| 2026-05-04 17:47 | 42.83978 | 46.42120 | 34892 ft | 467 kts | 132° |
| 2026-05-04 17:47 | 42.80059 | 46.49190 | 34898 ft | 467 kts | 132° |
| 2026-05-04 17:48 | 42.76143 | 46.56238 | 34891 ft | 467 kts | 132° |
| 2026-05-04 17:48 | 42.72211 | 46.63283 | 34905 ft | 467 kts | 132° |
| 2026-05-04 17:49 | 42.68302 | 46.70283 | 34882 ft | 468 kts | 132° |
| 2026-05-04 17:49 | 42.64365 | 46.77321 | 34888 ft | 468 kts | 132° |
| 2026-05-04 17:50 | 42.60412 | 46.84355 | 34904 ft | 468 kts | 132° |
| 2026-05-04 17:50 | 42.56467 | 46.91389 | 34913 ft | 469 kts | 132° |
| 2026-05-04 17:51 | 42.52514 | 46.98421 | 34905 ft | 469 kts | 132° |
| 2026-05-04 17:51 | 42.48545 | 47.05476 | 34918 ft | 470 kts | 132° |
| 2026-05-04 17:52 | 42.44600 | 47.12472 | 34913 ft | 471 kts | 132° |
| 2026-05-04 17:52 | 42.40629 | 47.19518 | 34898 ft | 471 kts | 133° |
| 2026-05-04 17:53 | 42.36623 | 47.26550 | 34906 ft | 472 kts | 133° |
| 2026-05-04 17:53 | 42.32615 | 47.33570 | 34887 ft | 472 kts | 133° |
| 2026-05-04 17:54 | 42.28587 | 47.40586 | 34885 ft | 473 kts | 133° |
| 2026-05-04 17:54 | 42.24577 | 47.47620 | 34874 ft | 473 kts | 133° |
| 2026-05-04 17:55 | 42.20531 | 47.54633 | 34872 ft | 473 kts | 133° |
| 2026-05-04 17:55 | 42.16508 | 47.61594 | 34874 ft | 474 kts | 133° |
| 2026-05-04 17:56 | 42.12470 | 47.68608 | 34874 ft | 474 kts | 133° |
| 2026-05-04 17:56 | 42.08435 | 47.75628 | 34883 ft | 474 kts | 133° |
| 2026-05-04 17:57 | 42.04394 | 47.82661 | 34877 ft | 475 kts | 133° |
| 2026-05-04 17:57 | 42.00325 | 47.89641 | 34892 ft | 475 kts | 133° |
| 2026-05-04 17:58 | 41.96258 | 47.96636 | 34899 ft | 475 kts | 134° |
| 2026-05-04 17:58 | 41.92179 | 48.03625 | 34902 ft | 475 kts | 134° |
| 2026-05-04 17:59 | 41.88081 | 48.10595 | 34904 ft | 472 kts | 134° |
| 2026-05-04 17:59 | 41.84192 | 48.17280 | 34898 ft | 440 kts | 134° |
| 2026-05-04 18:00 | 41.82337 | 48.20474 | 34914 ft | 433 kts | 134° |
| 2026-05-04 18:00 | 41.78571 | 48.26851 | 34909 ft | 437 kts | 134° |
| 2026-05-04 18:01 | 41.74802 | 48.33223 | 34931 ft | 437 kts | 134° |
| 2026-05-04 18:01 | 41.71031 | 48.39608 | 34933 ft | 437 kts | 135° |
| 2026-05-04 18:02 | 41.64859 | 48.48290 | 34948 ft | 417 kts | 156° |
| 2026-05-04 18:02 | 41.59822 | 48.51864 | 34934 ft | 407 kts | 157° |
| 2026-05-04 18:03 | 41.54959 | 48.55750 | 34933 ft | 410 kts | 154° |
| 2026-05-04 18:03 | 41.52537 | 48.57814 | 34705 ft | 414 kts | 153° |
| 2026-05-04 18:03 | 41.50117 | 48.59887 | 34165 ft | 413 kts | 154° |
| 2026-05-04 18:04 | 41.47690 | 48.61941 | 33467 ft | 413 kts | 154° |
| 2026-05-04 18:04 | 41.45265 | 48.64002 | 32783 ft | 413 kts | 153° |
| 2026-05-04 18:04 | 41.40401 | 48.68142 | 31279 ft | 416 kts | 153° |
| 2026-05-04 18:05 | 41.37957 | 48.70215 | 30569 ft | 417 kts | 153° |
| 2026-05-04 18:05 | 41.35504 | 48.72299 | 29909 ft | 417 kts | 153° |
| 2026-05-04 18:05 | 41.33058 | 48.74362 | 29138 ft | 416 kts | 153° |
| 2026-05-04 18:05 | 41.30615 | 48.76419 | 28406 ft | 415 kts | 153° |
| 2026-05-04 18:06 | 41.25795 | 48.80466 | 27092 ft | 410 kts | 153° |
| 2026-05-04 18:06 | 41.23381 | 48.82494 | 26445 ft | 408 kts | 153° |
| 2026-05-04 18:06 | 41.20986 | 48.84489 | 25824 ft | 406 kts | 153° |
| 2026-05-04 18:07 | 41.18602 | 48.86488 | 25228 ft | 403 kts | 153° |
| 2026-05-04 18:07 | 41.16234 | 48.88467 | 24633 ft | 401 kts | 153° |
| 2026-05-04 18:07 | 41.13873 | 48.90444 | 24047 ft | 401 kts | 153° |
| 2026-05-04 18:07 | 41.11508 | 48.92411 | 23454 ft | 401 kts | 153° |
| 2026-05-04 18:08 | 41.09151 | 48.94382 | 22773 ft | 398 kts | 153° |
| 2026-05-04 18:08 | 41.06818 | 48.96320 | 22111 ft | 395 kts | 153° |
| 2026-05-04 18:08 | 41.04479 | 48.98250 | 21472 ft | 397 kts | 153° |
| 2026-05-04 18:08 | 41.02134 | 49.00212 | 20834 ft | 400 kts | 153° |
| 2026-05-04 18:09 | 40.97384 | 49.04150 | 19717 ft | 403 kts | 153° |
| 2026-05-04 18:09 | 40.92636 | 49.08078 | 18966 ft | 401 kts | 153° |
| 2026-05-04 18:10 | 40.90267 | 49.10038 | 18592 ft | 402 kts | 153° |
| 2026-05-04 18:10 | 40.87902 | 49.12004 | 18216 ft | 401 kts | 153° |
| 2026-05-04 18:10 | 40.85532 | 49.13959 | 17790 ft | 401 kts | 153° |
| 2026-05-04 18:10 | 40.83203 | 49.15900 | 17376 ft | 401 kts | 153° |
| 2026-05-04 18:11 | 40.80839 | 49.17845 | 16957 ft | 400 kts | 153° |
| 2026-05-04 18:11 | 40.78476 | 49.19795 | 16533 ft | 400 kts | 153° |
| 2026-05-04 18:11 | 40.76121 | 49.21742 | 16138 ft | 399 kts | 153° |
| 2026-05-04 18:11 | 40.73962 | 49.24102 | 15717 ft | 410 kts | 134° |
| 2026-05-04 18:12 | 40.72584 | 49.27435 | 15334 ft | 420 kts | 111° |
| 2026-05-04 18:12 | 40.72224 | 49.31229 | 14955 ft | 416 kts | 92° |
| 2026-05-04 18:12 | 40.72437 | 49.34974 | 14578 ft | 405 kts | 88° |
| 2026-05-04 18:12 | 40.72625 | 49.38629 | 14194 ft | 392 kts | 91° |
| 2026-05-04 18:13 | 40.72670 | 49.42154 | 13979 ft | 376 kts | 94° |
| 2026-05-04 18:13 | 40.72624 | 49.45546 | 13774 ft | 362 kts | 95° |
| 2026-05-04 18:13 | 40.72446 | 49.51914 | 13366 ft | 339 kts | 96° |
| 2026-05-04 18:14 | 40.72369 | 49.54998 | 13163 ft | 335 kts | 96° |
| 2026-05-04 18:14 | 40.72299 | 49.58072 | 12950 ft | 333 kts | 96° |
| 2026-05-04 18:14 | 40.72211 | 49.61118 | 12750 ft | 332 kts | 96° |
| 2026-05-04 18:15 | 40.72058 | 49.67174 | 12354 ft | 330 kts | 96° |
| 2026-05-04 18:15 | 40.71896 | 49.73185 | 12014 ft | 326 kts | 96° |
| 2026-05-04 18:15 | 40.71822 | 49.76173 | 11937 ft | 325 kts | 96° |
| 2026-05-04 18:16 | 40.71770 | 49.79154 | 11908 ft | 328 kts | 89° |
| 2026-05-04 18:16 | 40.72410 | 49.81990 | 11914 ft | 331 kts | 59° |
| 2026-05-04 18:16 | 40.74028 | 49.84168 | 11929 ft | 330 kts | 28° |
| 2026-05-04 18:17 | 40.78325 | 49.86023 | 11920 ft | 328 kts | 10° |
| 2026-05-04 18:17 | 40.80543 | 49.86719 | 11924 ft | 327 kts | 9° |
| 2026-05-04 18:17 | 40.84977 | 49.88095 | 11919 ft | 327 kts | 9° |
| 2026-05-04 18:18 | 40.87199 | 49.88692 | 11908 ft | 323 kts | 358° |
| 2026-05-04 18:18 | 40.89333 | 49.88180 | 11945 ft | 306 kts | 327° |
| 2026-05-04 18:18 | 40.90901 | 49.86438 | 11949 ft | 289 kts | 296° |
| 2026-05-04 18:18 | 40.91512 | 49.84001 | 11953 ft | 276 kts | 266° |
| 2026-05-04 18:19 | 40.89634 | 49.80021 | 11966 ft | 272 kts | 204° |
| 2026-05-04 18:19 | 40.87748 | 49.79709 | 11966 ft | 282 kts | 174° |
| 2026-05-04 18:19 | 40.85887 | 49.80672 | 11960 ft | 293 kts | 160° |
| 2026-05-04 18:20 | 40.83972 | 49.81388 | 11924 ft | 282 kts | 181° |
| 2026-05-04 18:20 | 40.82042 | 49.81210 | 11932 ft | 278 kts | 193° |
| 2026-05-04 18:20 | 40.80129 | 49.80757 | 11898 ft | 279 kts | 194° |
| 2026-05-04 18:20 | 40.78280 | 49.80304 | 11906 ft | 270 kts | 194° |
| 2026-05-04 18:21 | 40.76419 | 49.79876 | 11892 ft | 274 kts | 193° |
| 2026-05-04 18:21 | 40.74505 | 49.79445 | 11890 ft | 285 kts | 193° |
| 2026-05-04 18:21 | 40.72510 | 49.79026 | 11899 ft | 295 kts | 193° |
| 2026-05-04 18:21 | 40.70453 | 49.78599 | 11894 ft | 304 kts | 192° |
| 2026-05-04 18:22 | 40.68339 | 49.78156 | 11896 ft | 311 kts | 193° |
| 2026-05-04 18:22 | 40.66907 | 49.77855 | 11894 ft | 316 kts | 193° |
| 2026-05-04 18:22 | 40.64716 | 49.77395 | 11892 ft | 322 kts | 192° |
| 2026-05-04 18:22 | 40.62477 | 49.76924 | 11891 ft | 328 kts | 192° |
| 2026-05-04 18:23 | 40.60197 | 49.76502 | 11886 ft | 333 kts | 191° |
| 2026-05-04 18:23 | 40.57877 | 49.76116 | 11886 ft | 338 kts | 191° |
| 2026-05-04 18:23 | 40.55529 | 49.75722 | 11885 ft | 341 kts | 191° |
| 2026-05-04 18:23 | 40.53164 | 49.75309 | 11886 ft | 344 kts | 191° |
| 2026-05-04 18:24 | 40.50778 | 49.74898 | 11888 ft | 347 kts | 191° |
| 2026-05-04 18:24 | 40.48374 | 49.74485 | 11887 ft | 349 kts | 191° |
| 2026-05-04 18:24 | 40.45958 | 49.74072 | 11887 ft | 351 kts | 191° |
| 2026-05-04 18:24 | 40.43528 | 49.73646 | 11890 ft | 353 kts | 191° |
| 2026-05-04 18:25 | 40.41086 | 49.73227 | 11892 ft | 354 kts | 191° |
| 2026-05-04 18:25 | 40.38637 | 49.72806 | 11896 ft | 356 kts | 190° |
| 2026-05-04 18:25 | 40.36177 | 49.72386 | 11892 ft | 357 kts | 190° |
| 2026-05-04 18:25 | 40.33716 | 49.71964 | 11886 ft | 358 kts | 190° |
| 2026-05-04 18:26 | 40.31235 | 49.71534 | 11708 ft | 363 kts | 190° |
| 2026-05-04 18:26 | 40.28734 | 49.71092 | 11412 ft | 371 kts | 190° |
| 2026-05-04 18:26 | 40.26147 | 49.71083 | 11095 ft | 374 kts | 175° |
| 2026-05-04 18:26 | 40.23653 | 49.71814 | 10786 ft | 359 kts | 168° |
| 2026-05-04 18:27 | 40.21308 | 49.72646 | 10647 ft | 339 kts | 169° |
| 2026-05-04 18:27 | 40.19080 | 49.73393 | 10523 ft | 320 kts | 170° |
| 2026-05-04 18:27 | 40.16972 | 49.74056 | 10402 ft | 303 kts | 171° |
| 2026-05-04 18:27 | 40.14967 | 49.74647 | 10221 ft | 290 kts | 171° |
| 2026-05-04 18:28 | 40.13079 | 49.75548 | 9797 ft | 293 kts | 149° |
| 2026-05-04 18:28 | 40.11556 | 49.77329 | 9363 ft | 294 kts | 138° |
| 2026-05-04 18:28 | 40.10173 | 49.79251 | 8895 ft | 292 kts | 137° |
| 2026-05-04 18:28 | 40.08776 | 49.81159 | 8505 ft | 288 kts | 138° |
| 2026-05-04 18:29 | 40.07379 | 49.83001 | 8096 ft | 283 kts | 139° |
| 2026-05-04 18:29 | 40.06084 | 49.84924 | 7717 ft | 283 kts | 126° |
| 2026-05-04 18:29 | 40.05161 | 49.87183 | 7338 ft | 281 kts | 119° |
| 2026-05-04 18:29 | 40.04497 | 49.89575 | 6940 ft | 284 kts | 101° |
| 2026-05-04 18:30 | 40.05583 | 49.94433 | 6222 ft | 293 kts | 50° |
| 2026-05-04 18:30 | 40.07231 | 49.96032 | 5852 ft | 301 kts | 27° |
| 2026-05-04 18:30 | 40.09173 | 49.97109 | 5458 ft | 306 kts | 22° |
| 2026-05-04 18:31 | 40.11163 | 49.98096 | 5060 ft | 304 kts | 22° |
| 2026-05-04 18:31 | 40.13100 | 49.99076 | 4690 ft | 300 kts | 22° |
| 2026-05-04 18:31 | 40.15029 | 50.00089 | 4292 ft | 297 kts | 23° |
| 2026-05-04 18:31 | 40.16934 | 50.01109 | 3887 ft | 294 kts | 23° |
| 2026-05-04 18:32 | 40.18808 | 50.02125 | 3503 ft | 290 kts | 23° |
| 2026-05-04 18:32 | 40.20664 | 50.03129 | 3105 ft | 286 kts | 22° |
| 2026-05-04 18:32 | 40.22488 | 50.04124 | 2708 ft | 282 kts | 22° |
| 2026-05-04 18:32 | 40.24279 | 50.05114 | 2362 ft | 275 kts | 22° |
| 2026-05-04 18:33 | 40.26011 | 50.06074 | 2096 ft | 264 kts | 21° |
| 2026-05-04 18:33 | 40.27650 | 50.06982 | 1983 ft | 249 kts | 20° |
| 2026-05-04 18:33 | 40.29182 | 50.07827 | 1958 ft | 230 kts | 20° |
| 2026-05-04 18:33 | 40.30634 | 50.08441 | 1934 ft | 210 kts | 0° |
| 2026-05-04 18:34 | 40.32013 | 50.08363 | 1915 ft | 188 kts | 353° |
| 2026-05-04 18:34 | 40.33208 | 50.08058 | 1951 ft | 164 kts | 344° |
| 2026-05-04 18:34 | 40.34261 | 50.07709 | 1946 ft | 150 kts | 346° |
| 2026-05-04 18:34 | 40.35263 | 50.07397 | 1958 ft | 151 kts | 346° |
| 2026-05-04 18:35 | 40.36304 | 50.07067 | 1935 ft | 158 kts | 346° |
| 2026-05-04 18:35 | 40.37431 | 50.06713 | 1690 ft | 172 kts | 346° |
| 2026-05-04 18:35 | 40.38602 | 50.06346 | 1424 ft | 171 kts | 346° |
| 2026-05-04 18:35 | 40.39729 | 50.05991 | 1174 ft | 161 kts | 346° |
| 2026-05-04 18:36 | 40.40780 | 50.05660 | 990 ft | 149 kts | 346° |
| 2026-05-04 18:36 | 40.41762 | 50.05351 | 810 ft | 141 kts | 346° |
| 2026-05-04 18:36 | 40.42689 | 50.05059 | 636 ft | 132 kts | 345° |
| 2026-05-04 18:36 | 40.43567 | 50.04783 | 467 ft | 129 kts | 344° |
| 2026-05-04 18:37 | 40.44434 | 50.04509 | 289 ft | 129 kts | 343° |
| 2026-05-04 18:37 | 40.45305 | 50.04225 | 69 ft | 128 kts | 344° |
| 2026-05-04 18:37 | 40.46143 | 50.03957 | 1 ft | 110 kts | 347° |
| 2026-05-04 18:37 | 40.46595 | 50.03820 | 1 ft | 42 kts | 346° |
| 2026-05-04 18:38 | 40.46769 | 50.03784 | 2 ft | 15 kts | 20° |
| 2026-05-04 18:38 | 40.46815 | 50.03890 | 5 ft | 13 kts | 73° |
| 2026-05-04 18:38 | 40.46838 | 50.03998 | 6 ft | 12 kts | 75° |
| 2026-05-04 18:38 | 40.46857 | 50.04106 | 5 ft | 14 kts | 77° |
| 2026-05-04 18:39 | 40.46889 | 50.04275 | 5 ft | 25 kts | 77° |
| 2026-05-04 18:39 | 40.46911 | 50.04543 | 6 ft | 33 kts | 89° |
| 2026-05-04 18:39 | 40.46922 | 50.04849 | 7 ft | 33 kts | 89° |
| 2026-05-04 18:39 | 40.46893 | 50.05031 | 8 ft | 14 kts | 163° |
| 2026-05-04 18:40 | 40.46789 | 50.05030 | 7 ft | 11 kts | 168° |
| 2026-05-04 18:40 | 40.46754 | 50.05082 | 7 ft | 0 kts | 115° |